Galveston, TX

1:06 PM CDT on July 27, 2016 (GMT -0500)
Galveston.com | | Change Station

Elev 36 ft 29.31 °N, 94.79 °W | Updated 1 second ago

Clear
Clear
83.1 °F
Feels Like 94 °F
N
4.2
Wind Variable Wind from SE
Gusts 6.0 mph

Today
High -- | Low -- °F
--% Chance of Precip.
Yesterday
High -- | Low -- °F
Precip. -- in
Pressure 30.02 in
Visibility 10.0 miles
Clouds Clear
Heat Index 94 °F
Dew Point 78 °F
Humidity 87%
Rainfall 0.10 in
Snow Depth Not available.
6:36 AM 8:14 PM
Last Quarter, 41% visible
METAR KGLS 271752Z 04008KT 10SM CLR 28/26 A3002 RMK AO2 SLP164 60011 T02830256 10289 20239 58001
Pressure 30.02 in
Visibility 10.0 miles
Clouds Clear
Heat Index 94 °F
Dew Point 78 °F
Humidity 87%
Rainfall 0.10 in
Snow Depth Not available.
6:36 AM 8:14 PM
Last Quarter, 41% visible
METAR KGLS 271752Z 04008KT 10SM CLR 28/26 A3002 RMK AO2 SLP164 60011 T02830256 10289 20239 58001

10-Day Weather Forecast

Almanac

Astronomy

Jul. 27, 2016 Rise Set
Actual Time
Civil Twilight
Nautical Twilight
Astronomical Twilight
Moon
Length of Visible Light
Length of Day
Tomorrow will be .
, % of the Moon is Illuminated

Today's Extremes

State Highs State Lows

Community

WunderPhotos

Upload Photos

1,927,892 photos uploaded!

WunderBlog® & News

Nearby

Air Quality

  Air Quality AQ Index Pollutant
Not available.

Snow Depth

Station Depth Elevation

Earthquake Activity

City Distance Mag. Time & Date
Minimum magnitude displayed is 2.5.

Coastal Water Temperatures

Place Temperature

Stations

Nearby Weather Stations

Station Location Temp. Windchill Dew Point Humidity Wind Precip. Elev Updated Type
                   

Watches & Warnings

There are currently no watches in effect.